createdAt,value
2023-04-27T00:00:36.804Z,97232.25
2023-04-27T00:03:06.129Z,97230.63
2023-04-27T00:05:37.267Z,97230.63
2023-04-27T00:08:03.915Z,97235.84
2023-04-27T00:10:30.474Z,97229.94
2023-04-27T00:12:57.026Z,97229.19
2023-04-27T00:15:23.678Z,97237.13
2023-04-27T00:17:50.310Z,97234.44
2023-04-27T00:20:17.133Z,97243.25
2023-04-27T00:22:43.636Z,97246.00
2023-04-27T00:25:10.268Z,97237.44
2023-04-27T00:27:36.694Z,97240.31
2023-04-27T00:30:03.581Z,97238.59
2023-04-27T00:32:30.258Z,97236.97
2023-04-27T00:34:56.830Z,97243.03
2023-04-27T00:37:25.780Z,97229.22
2023-04-27T00:39:52.250Z,97242.38
2023-04-27T00:42:19.845Z,97244.19
2023-04-27T00:44:47.173Z,97245.03
2023-04-27T00:47:14.239Z,97241.53
2023-04-27T00:49:41.377Z,97238.22
2023-04-27T00:52:08.000Z,97241.72
2023-04-27T00:54:35.015Z,97233.03
2023-04-27T00:57:02.328Z,97239.22
2023-04-27T00:59:29.277Z,97247.06
2023-04-27T01:01:56.410Z,97238.31
2023-04-27T01:04:23.657Z,97251.19
2023-04-27T01:06:50.385Z,97250.63
2023-04-27T01:09:19.756Z,97249.00
2023-04-27T01:11:47.195Z,97253.38
2023-04-27T01:14:13.827Z,97248.25
2023-04-27T01:16:40.882Z,97249.97
2023-04-27T01:19:08.193Z,97260.50
2023-04-27T01:21:34.917Z,97264.88
2023-04-27T01:24:01.564Z,97266.63
2023-04-27T01:26:28.227Z,97265.75
2023-04-27T01:28:54.892Z,97269.34
2023-04-27T01:31:21.760Z,97274.66
2023-04-27T01:33:48.410Z,97270.44
2023-04-27T01:36:15.095Z,97272.22
2023-04-27T01:38:42.432Z,97275.72
2023-04-27T01:41:09.401Z,97273.25
2023-04-27T01:43:39.311Z,97279.31
2023-04-27T01:46:14.244Z,97278.47
2023-04-27T01:48:41.781Z,97278.47
2023-04-27T01:51:08.403Z,97272.50
2023-04-27T01:53:35.218Z,97280.38
2023-04-27T01:56:01.914Z,97276.06
2023-04-27T01:58:28.605Z,97273.47
2023-04-27T02:00:55.503Z,97278.72
2023-04-27T02:03:22.427Z,97274.50
2023-04-27T02:05:49.235Z,97279.69
2023-04-27T02:08:15.801Z,97276.31
2023-04-27T02:10:42.407Z,97284.94
2023-04-27T02:13:09.881Z,97281.44
2023-04-27T02:15:36.637Z,97282.38
2023-04-27T02:18:04.955Z,97283.38
2023-04-27T02:20:32.865Z,97282.56
2023-04-27T02:22:59.785Z,97280.88
2023-04-27T02:25:26.917Z,97286.19
2023-04-27T02:27:53.919Z,97288.88
2023-04-27T02:30:21.445Z,97289.69
2023-04-27T02:32:48.725Z,97287.19
2023-04-27T02:35:15.578Z,97295.75
2023-04-27T02:37:42.332Z,97296.69
2023-04-27T02:40:09.646Z,97304.53
2023-04-27T02:42:38.229Z,97305.41
2023-04-27T02:45:07.149Z,97306.28
2023-04-27T02:47:34.365Z,97301.00
2023-04-27T02:50:01.632Z,97308.91
2023-04-27T02:52:28.328Z,97308.91
2023-04-27T02:54:57.721Z,97311.53
2023-04-27T02:57:24.385Z,97307.22
2023-04-27T02:59:51.082Z,97315.94
2023-04-27T03:02:17.780Z,97316.91
2023-04-27T03:04:44.685Z,97317.94
2023-04-27T03:07:13.021Z,97317.09
2023-04-27T03:09:39.650Z,97324.84
2023-04-27T03:12:06.331Z,97324.06
2023-04-27T03:14:33.027Z,97326.56
2023-04-27T03:17:00.675Z,97331.78
2023-04-27T03:19:27.573Z,97331.78
2023-04-27T03:21:54.226Z,97334.38
2023-04-27T03:24:21.923Z,97338.69
2023-04-27T03:26:48.927Z,97343.97
2023-04-27T03:29:15.847Z,97347.44
2023-04-27T03:31:42.728Z,97344.88
2023-04-27T03:34:09.381Z,97350.13
2023-04-27T03:36:35.938Z,97350.97
2023-04-27T03:39:03.180Z,97352.72
2023-04-27T03:41:29.796Z,97357.97
2023-04-27T03:43:56.573Z,97365.84
2023-04-27T03:46:23.280Z,97365.75
2023-04-27T03:48:49.967Z,97364.00
2023-04-27T03:51:17.875Z,97364.81
2023-04-27T03:53:44.540Z,97360.34
2023-04-27T03:56:11.305Z,97368.25
2023-04-27T03:58:38.005Z,97374.28
2023-04-27T04:01:04.759Z,97368.03
2023-04-27T04:03:31.578Z,97378.34
2023-04-27T04:05:58.322Z,97374.94
2023-04-27T04:08:24.921Z,97384.50
2023-04-27T04:10:51.593Z,97391.47
2023-04-27T04:13:18.294Z,97378.25
2023-04-27T04:15:45.428Z,97389.50
2023-04-27T04:18:12.101Z,97395.47
2023-04-27T04:20:38.678Z,97395.38
2023-04-27T04:23:05.352Z,97392.72
2023-04-27T04:25:32.321Z,97398.78
2023-04-27T04:27:59.130Z,97393.41
2023-04-27T04:30:26.326Z,97403.63
2023-04-27T04:32:53.085Z,97404.34
2023-04-27T04:35:20.025Z,97404.25
2023-04-27T04:37:46.853Z,97411.97
2023-04-27T04:40:14.090Z,97406.66
2023-04-27T04:42:41.445Z,97404.84
2023-04-27T04:45:08.522Z,97414.38
2023-04-27T04:47:35.231Z,97416.00
2023-04-27T04:50:02.207Z,97411.53
2023-04-27T04:52:29.093Z,97413.97
2023-04-27T04:54:55.686Z,97417.44
2023-04-27T04:57:22.385Z,97419.09
2023-04-27T04:59:48.998Z,97414.72
2023-04-27T05:02:15.828Z,97422.41
2023-04-27T05:04:42.577Z,97430.09
2023-04-27T05:07:14.050Z,97428.19
2023-04-27T05:09:41.470Z,97423.75
2023-04-27T05:12:08.145Z,97429.03
2023-04-27T05:14:35.179Z,97428.09
2023-04-27T05:17:05.013Z,97425.53
2023-04-27T05:19:31.829Z,97429.84
2023-04-27T05:21:59.038Z,97429.78
2023-04-27T05:24:27.277Z,97427.91
2023-04-27T05:26:55.003Z,97432.03
2023-04-27T05:29:22.447Z,97430.97
2023-04-27T05:31:49.553Z,97430.81
2023-04-27T05:34:16.605Z,97431.53
2023-04-27T05:36:43.317Z,97427.81
2023-04-27T05:39:10.098Z,97435.41
2023-04-27T05:41:36.800Z,97430.66
2023-04-27T05:44:03.445Z,97429.47
2023-04-27T05:46:32.989Z,97439.97
2023-04-27T05:48:59.812Z,97442.19
2023-04-27T05:51:27.157Z,97440.81
2023-04-27T05:53:55.444Z,97435.75
2023-04-27T05:56:22.351Z,97439.66
2023-04-27T05:58:48.840Z,97440.38
2023-04-27T06:01:15.437Z,97438.47
2023-04-27T06:03:42.159Z,97441.91
2023-04-27T06:06:08.935Z,97443.38
2023-04-27T06:08:37.653Z,97447.41
2023-04-27T06:11:04.280Z,97446.53
2023-04-27T06:13:31.694Z,97445.50
2023-04-27T06:15:58.180Z,97440.34
2023-04-27T06:18:24.876Z,97446.41
2023-04-27T06:20:53.493Z,97443.50
2023-04-27T06:23:20.057Z,97445.09
2023-04-27T06:25:46.739Z,97440.59
2023-04-27T06:28:13.377Z,97447.25
2023-04-27T06:30:39.997Z,97446.50
2023-04-27T06:33:06.757Z,97450.97
2023-04-27T06:35:33.637Z,97447.22
2023-04-27T06:38:00.940Z,97449.25
2023-04-27T06:40:27.843Z,97443.59
2023-04-27T06:42:54.619Z,97441.81
2023-04-27T06:45:24.127Z,97437.00
2023-04-27T06:47:50.899Z,97440.44
2023-04-27T06:50:17.774Z,97438.75
2023-04-27T06:52:47.359Z,97440.78
2023-04-27T06:55:14.044Z,97434.97
2023-04-27T06:57:40.725Z,97443.91
2023-04-27T07:00:08.950Z,97438.44
2023-04-27T07:02:35.872Z,97439.00
2023-04-27T07:05:02.770Z,97438.78
2023-04-27T07:07:29.628Z,97436.84
2023-04-27T07:09:56.351Z,97434.38
2023-04-27T07:12:22.930Z,97435.03
2023-04-27T07:14:51.038Z,97432.06
2023-04-27T07:17:17.704Z,97440.88
2023-04-27T07:19:44.374Z,97434.13
2023-04-27T07:22:11.800Z,97443.59
2023-04-27T07:24:38.422Z,97434.75
2023-04-27T07:27:05.126Z,97437.16
2023-04-27T07:29:32.394Z,97436.94
2023-04-27T07:32:04.837Z,97442.09
2023-04-27T07:34:41.099Z,97438.41
2023-04-27T07:37:11.921Z,97437.81
2023-04-27T07:39:38.605Z,97432.91
2023-04-27T07:42:05.541Z,97426.28
2023-04-27T07:44:32.282Z,97427.56
2023-04-27T07:46:58.964Z,97428.34
2023-04-27T07:49:26.470Z,97422.66
2023-04-27T07:51:53.144Z,97436.41
2023-04-27T07:54:19.857Z,97433.69
2023-04-27T07:56:53.761Z,97428.50
2023-04-27T07:59:20.399Z,97427.97
2023-04-27T08:01:47.525Z,97431.84
2023-04-27T08:04:17.859Z,97429.31
2023-04-27T08:06:46.859Z,97431.91
2023-04-27T08:09:17.668Z,97430.22
2023-04-27T08:11:44.265Z,97436.13
2023-04-27T08:14:13.773Z,97423.09
2023-04-27T08:16:41.167Z,97419.16
2023-04-27T08:19:09.226Z,97429.06
2023-04-27T08:21:36.732Z,97419.88
2023-04-27T08:24:03.637Z,97431.75
2023-04-27T08:26:30.414Z,97424.50
2023-04-27T08:28:57.610Z,97425.75
2023-04-27T08:31:24.751Z,97425.31
2023-04-27T08:33:52.622Z,97430.75
2023-04-27T08:36:24.370Z,97425.44
2023-04-27T08:39:03.396Z,97422.81
2023-04-27T08:41:32.017Z,97423.28
2023-04-27T08:44:00.472Z,97419.31
2023-04-27T08:46:27.266Z,97419.13
2023-04-27T08:48:54.447Z,97402.69
2023-04-27T08:51:27.502Z,97418.91
2023-04-27T08:53:56.920Z,97410.25
2023-04-27T08:56:27.664Z,97427.00
2023-04-27T08:58:58.777Z,97405.06
2023-04-27T09:01:27.599Z,97402.59
2023-04-27T09:03:59.064Z,97410.09
2023-04-27T09:06:36.389Z,97402.50
2023-04-27T09:09:04.295Z,97403.44
2023-04-27T09:11:36.064Z,97408.09
2023-04-27T09:14:15.712Z,97408.66
2023-04-27T09:16:42.861Z,97421.16
2023-04-27T09:19:09.600Z,97418.16
2023-04-27T09:21:36.358Z,97414.44
2023-04-27T09:24:13.566Z,97407.94
2023-04-27T09:26:42.194Z,97415.41
2023-04-27T09:29:09.206Z,97407.84
2023-04-27T09:31:36.762Z,97409.78
2023-04-27T09:34:04.816Z,97421.28
2023-04-27T09:36:32.762Z,97423.63
2023-04-27T09:39:06.060Z,97418.56
2023-04-27T09:41:33.439Z,97420.88
2023-04-27T09:44:05.130Z,97409.34
2023-04-27T09:46:33.745Z,97412.00
2023-04-27T09:49:01.413Z,97400.81
2023-04-27T09:51:27.958Z,97401.88
2023-04-27T09:53:57.624Z,97401.03
2023-04-27T09:56:26.062Z,97391.88
2023-04-27T09:59:01.882Z,97394.13
2023-04-27T10:01:41.921Z,97392.66
2023-04-27T10:04:20.556Z,97392.88
2023-04-27T10:07:00.637Z,97377.50
2023-04-27T10:09:37.574Z,97399.81
2023-04-27T10:12:33.540Z,97396.66
2023-04-27T10:15:00.853Z,97420.28
2023-04-27T10:17:32.244Z,97392.38
2023-04-27T10:20:03.124Z,97405.22
2023-04-27T10:22:41.969Z,97405.16
2023-04-27T10:25:22.196Z,97412.56
2023-04-27T10:28:01.996Z,97419.38
2023-04-27T10:30:32.625Z,97415.13
2023-04-27T10:33:07.662Z,97424.69
2023-04-27T10:35:41.136Z,97405.50
2023-04-27T10:38:16.585Z,97401.25
2023-04-27T10:41:05.894Z,97392.75
2023-04-27T10:43:35.039Z,97405.84
2023-04-27T10:46:16.414Z,97416.41
2023-04-27T10:48:44.695Z,97409.53
2023-04-27T10:51:16.686Z,97415.47
2023-04-27T10:53:43.491Z,97412.06
2023-04-27T10:56:10.598Z,97409.63
2023-04-27T11:01:08.844Z,97393.56
2023-04-27T11:03:36.422Z,97405.19
2023-04-27T11:06:05.737Z,97406.22
2023-04-27T11:08:36.792Z,97427.06
2023-04-27T11:11:05.130Z,97412.91
2023-04-27T11:13:34.958Z,97406.66
2023-04-27T11:16:01.767Z,97405.13
2023-04-27T11:18:33.851Z,97418.44
2023-04-27T11:21:10.690Z,97418.00
2023-04-27T11:23:38.757Z,97428.47
2023-04-27T11:26:33.970Z,97418.91
2023-04-27T11:29:08.085Z,97429.97
2023-04-27T11:31:52.187Z,97438.16
2023-04-27T11:34:26.652Z,97424.28
2023-04-27T11:37:03.760Z,97416.13
2023-04-27T11:39:41.743Z,97417.84
2023-04-27T11:42:22.162Z,97421.47
2023-04-27T11:45:02.818Z,97426.47
2023-04-27T11:47:33.877Z,97431.06
2023-04-27T11:50:05.054Z,97433.56
2023-04-27T11:52:36.301Z,97426.94
2023-04-27T11:55:04.179Z,97438.16
2023-04-27T11:57:33.043Z,97438.91
2023-04-27T12:00:01.666Z,97435.53
2023-04-27T12:02:34.119Z,97440.38
2023-04-27T12:05:01.503Z,97434.81
2023-04-27T12:07:30.804Z,97441.81
2023-04-27T12:09:58.953Z,97443.09
2023-04-27T12:12:27.518Z,97438.81
2023-04-27T12:14:54.379Z,97447.72
2023-04-27T12:17:21.307Z,97452.25
2023-04-27T12:19:48.021Z,97459.75
2023-04-27T12:22:14.692Z,97447.34
2023-04-27T12:24:41.397Z,97448.66
2023-04-27T12:27:08.440Z,97442.41
2023-04-27T12:29:35.108Z,97438.47
2023-04-27T12:32:04.065Z,97440.63
2023-04-27T12:34:30.903Z,97444.81
2023-04-27T12:37:00.326Z,97452.06
2023-04-27T12:39:27.117Z,97449.13
2023-04-27T12:42:00.291Z,97446.72
2023-04-27T12:44:27.262Z,97452.66
2023-04-27T12:46:55.135Z,97442.28
2023-04-27T12:49:27.335Z,97446.91
2023-04-27T12:51:54.268Z,97432.81
2023-04-27T12:54:23.909Z,97435.69
2023-04-27T12:56:51.245Z,97441.97
2023-04-27T12:59:18.125Z,97442.34
2023-04-27T13:01:51.748Z,97434.78
2023-04-27T13:04:20.992Z,97439.19
2023-04-27T13:06:48.330Z,97435.63
2023-04-27T13:09:15.542Z,97447.56
2023-04-27T13:11:42.333Z,97448.25
2023-04-27T13:14:09.910Z,97440.41
2023-04-27T13:16:36.728Z,97452.84
2023-04-27T13:19:03.430Z,97453.59
2023-04-27T13:21:30.367Z,97468.22
2023-04-27T13:23:59.535Z,97462.44
2023-04-27T13:26:26.958Z,97457.41
2023-04-27T13:28:53.676Z,97466.53
2023-04-27T13:31:20.427Z,97459.44
2023-04-27T13:33:47.125Z,97471.22
2023-04-27T13:36:14.243Z,97461.16
2023-04-27T13:38:42.791Z,97460.97
2023-04-27T13:41:11.144Z,97457.56
2023-04-27T13:43:37.713Z,97451.66
2023-04-27T13:46:08.666Z,97461.03
2023-04-27T13:48:35.314Z,97456.88
2023-04-27T13:51:02.012Z,97450.09
2023-04-27T13:53:28.622Z,97464.44
2023-04-27T13:55:56.020Z,97464.56
2023-04-27T13:58:26.234Z,97460.09
2023-04-27T14:00:53.610Z,97468.09
2023-04-27T14:03:20.930Z,97463.06
2023-04-27T14:05:49.055Z,97473.91
2023-04-27T14:08:16.035Z,97471.59
2023-04-27T14:10:42.716Z,97467.72
2023-04-27T14:13:09.265Z,97473.16
2023-04-27T14:15:38.697Z,97472.13
2023-04-27T14:18:06.199Z,97486.44
2023-04-27T14:20:34.480Z,97488.75
2023-04-27T14:23:01.341Z,97472.78
2023-04-27T14:25:32.560Z,97484.66
2023-04-27T14:28:03.500Z,97482.16
2023-04-27T14:30:33.540Z,97474.34
2023-04-27T14:33:00.306Z,97478.97
2023-04-27T14:35:28.023Z,97483.63
2023-04-27T14:37:58.556Z,97497.22
2023-04-27T14:40:27.700Z,97497.91
2023-04-27T14:42:54.272Z,97498.09
2023-04-27T14:45:21.714Z,97512.38
2023-04-27T14:47:52.913Z,97511.16
2023-04-27T14:50:21.885Z,97520.19
2023-04-27T14:52:50.871Z,97514.28
2023-04-27T14:55:20.099Z,97517.06
2023-04-27T14:57:49.392Z,97512.03
2023-04-27T15:00:19.018Z,97525.69
2023-04-27T15:02:48.631Z,97513.94
2023-04-27T15:05:18.502Z,97503.75
2023-04-27T15:07:47.724Z,97509.72
2023-04-27T15:10:15.448Z,97512.13
2023-04-27T15:12:44.438Z,97504.84
2023-04-27T15:15:12.876Z,97512.50
2023-04-27T15:17:39.615Z,97510.34
2023-04-27T15:20:06.926Z,97524.84
2023-04-27T15:22:33.708Z,97524.31
2023-04-27T15:25:00.332Z,97528.25
2023-04-27T15:27:26.900Z,97522.66
2023-04-27T15:29:58.159Z,97512.16
2023-04-27T15:32:29.991Z,97515.94
2023-04-27T15:35:00.053Z,97526.66
2023-04-27T15:37:28.183Z,97523.06
2023-04-27T15:39:54.934Z,97527.13
2023-04-27T15:42:21.864Z,97542.47
2023-04-27T15:44:51.811Z,97541.13
2023-04-27T15:47:18.547Z,97535.00
2023-04-27T15:49:57.011Z,97542.34
2023-04-27T15:52:24.422Z,97551.56
2023-04-27T15:54:51.126Z,97541.09
2023-04-27T15:57:18.531Z,97546.47
2023-04-27T15:59:45.191Z,97556.09
2023-04-27T16:02:13.208Z,97550.56
2023-04-27T16:04:42.618Z,97553.41
2023-04-27T16:07:10.699Z,97552.34
2023-04-27T16:09:37.738Z,97546.84
2023-04-27T16:12:07.256Z,97552.16
2023-04-27T16:14:36.094Z,97563.47
2023-04-27T16:17:06.006Z,97564.78
2023-04-27T16:19:35.117Z,97553.97
2023-04-27T16:24:42.407Z,97570.78
2023-04-27T16:27:11.781Z,97570.81
2023-04-27T16:29:41.073Z,97581.41
2023-04-27T16:32:21.999Z,97575.06
2023-04-27T16:34:48.918Z,97578.78
2023-04-27T16:37:15.930Z,97577.03
2023-04-27T16:39:42.556Z,97580.75
2023-04-27T16:42:09.818Z,97585.91
2023-04-27T16:44:37.970Z,97588.84
2023-04-27T16:47:04.835Z,97598.25
2023-04-27T16:49:31.561Z,97598.66
2023-04-27T16:51:58.286Z,97598.09
2023-04-27T16:54:24.938Z,97602.00
2023-04-27T16:56:55.230Z,97610.53
2023-04-27T16:59:24.319Z,97603.66
2023-04-27T17:01:51.337Z,97607.59
2023-04-27T17:04:20.221Z,97613.50
2023-04-27T17:06:49.570Z,97609.03
2023-04-27T17:09:17.770Z,97607.41
2023-04-27T17:11:44.549Z,97614.47
2023-04-27T17:14:11.215Z,97616.22
2023-04-27T17:16:37.846Z,97625.03
2023-04-27T17:19:13.329Z,97620.19
2023-04-27T17:21:40.131Z,97623.03
2023-04-27T17:24:07.034Z,97619.19
2023-04-27T17:26:33.656Z,97630.19
2023-04-27T17:29:01.354Z,97633.25
2023-04-27T17:31:30.076Z,97633.13
2023-04-27T17:33:56.705Z,97642.16
2023-04-27T17:36:23.325Z,97649.69
2023-04-27T17:38:49.960Z,97655.28
2023-04-27T17:41:16.556Z,97653.50
2023-04-27T17:43:43.293Z,97660.84
2023-04-27T17:46:10.162Z,97668.09
2023-04-27T17:48:37.469Z,97670.97
2023-04-27T17:51:06.914Z,97672.94
2023-04-27T17:53:42.560Z,97677.41
2023-04-27T17:56:09.002Z,97682.56
2023-04-27T17:58:35.563Z,97691.28
2023-04-27T18:01:02.136Z,97688.69
2023-04-27T18:03:28.929Z,97691.97
2023-04-27T18:05:57.162Z,97698.50
2023-04-27T18:08:23.772Z,97704.78
2023-04-27T18:10:50.798Z,97699.94
2023-04-27T18:13:17.391Z,97715.44
2023-04-27T18:15:44.106Z,97716.41
2023-04-27T18:18:11.999Z,97724.88
2023-04-27T18:20:38.615Z,97719.94
2023-04-27T18:23:05.233Z,97722.56
2023-04-27T18:25:32.123Z,97723.34
2023-04-27T18:28:00.902Z,97730.47
2023-04-27T18:30:30.855Z,97729.53
2023-04-27T18:32:57.537Z,97730.44
2023-04-27T18:35:26.630Z,97730.56
2023-04-27T18:37:56.294Z,97741.84
2023-04-27T18:40:27.724Z,97735.09
2023-04-27T18:42:54.394Z,97740.34
2023-04-27T18:45:21.383Z,97750.72
2023-04-27T18:47:48.090Z,97746.06
2023-04-27T18:50:14.893Z,97752.34
2023-04-27T18:52:41.764Z,97759.66
2023-04-27T18:55:37.040Z,97757.91
2023-04-27T18:58:03.664Z,97765.59
2023-04-27T19:00:35.997Z,97762.00
2023-04-27T19:03:08.170Z,97773.41
2023-04-27T19:05:42.950Z,97768.34
2023-04-27T19:08:10.323Z,97778.31
2023-04-27T19:10:41.589Z,97775.59
2023-04-27T19:13:08.320Z,97783.41
2023-04-27T19:15:35.125Z,97777.28
2023-04-27T19:18:10.493Z,97782.28
2023-04-27T19:20:41.537Z,97781.59
2023-04-27T19:23:12.639Z,97789.50
2023-04-27T19:25:40.373Z,97789.44
2023-04-27T19:28:07.099Z,97786.00
2023-04-27T19:30:34.193Z,97787.97
2023-04-27T19:33:01.363Z,97788.75
2023-04-27T19:35:28.138Z,97791.72
2023-04-27T19:37:54.794Z,97794.19
2023-04-27T19:40:21.578Z,97798.66
2023-04-27T19:42:48.391Z,97798.69
2023-04-27T19:45:15.456Z,97798.91
2023-04-27T19:47:42.207Z,97804.06
2023-04-27T19:50:09.307Z,97801.47
2023-04-27T19:52:38.253Z,97805.78
2023-04-27T19:55:05.212Z,97810.34
2023-04-27T19:57:32.674Z,97813.03
2023-04-27T19:59:59.649Z,97811.34
2023-04-27T20:02:26.321Z,97807.16
2023-04-27T20:04:56.503Z,97810.78
2023-04-27T20:07:23.556Z,97815.94
2023-04-27T20:09:50.400Z,97819.44
2023-04-27T20:12:40.297Z,97819.34
2023-04-27T20:15:05.341Z,97829.16
2023-04-27T20:17:32.158Z,97818.00
2023-04-27T20:19:58.847Z,97817.09
2023-04-27T20:22:25.752Z,97818.81
2023-04-27T20:24:52.378Z,97821.38
2023-04-27T20:27:19.008Z,97824.06
2023-04-27T20:29:47.313Z,97822.28
2023-04-27T20:32:14.006Z,97823.97
2023-04-27T20:34:40.720Z,97826.66
2023-04-27T20:37:07.602Z,97826.75
2023-04-27T20:39:35.086Z,97823.28
2023-04-27T20:42:01.740Z,97825.91
2023-04-27T20:44:28.384Z,97821.69
2023-04-27T20:46:55.000Z,97829.56
2023-04-27T20:49:31.936Z,97831.13
2023-04-27T20:52:01.659Z,97828.53
2023-04-27T20:54:28.454Z,97829.50
2023-04-27T20:56:55.093Z,97833.84
2023-04-27T20:59:21.724Z,97821.66
2023-04-27T21:01:48.532Z,97828.72
2023-04-27T21:04:41.977Z,97832.28
2023-04-27T21:07:08.716Z,97837.88
2023-04-27T21:09:36.315Z,97839.78
2023-04-27T21:12:02.951Z,97833.72
2023-04-27T21:14:29.583Z,97839.94
2023-04-27T21:16:56.426Z,97838.38
2023-04-27T21:19:23.553Z,97834.25
2023-04-27T21:21:50.198Z,97839.94
2023-04-27T21:24:28.204Z,97837.41
2023-04-27T21:26:54.880Z,97838.75
2023-04-27T21:29:21.491Z,97836.97
2023-04-27T21:31:48.077Z,97844.97
2023-04-27T21:34:15.075Z,97836.16
2023-04-27T21:36:42.017Z,97842.25
2023-04-27T21:39:08.894Z,97847.50
2023-04-27T21:41:35.844Z,97848.94
2023-04-27T21:44:02.574Z,97847.22
2023-04-27T21:46:29.247Z,97849.84
2023-04-27T21:48:55.881Z,97848.19
2023-04-27T21:51:22.499Z,97851.75
2023-04-27T21:53:49.101Z,97852.72
2023-04-27T21:56:15.876Z,97845.66
2023-04-27T21:58:42.504Z,97839.56
2023-04-27T22:01:09.168Z,97844.94
2023-04-27T22:03:39.153Z,97850.16
2023-04-27T22:06:06.368Z,97854.59
2023-04-27T22:08:33.125Z,97851.25
2023-04-27T22:10:59.675Z,97850.34
2023-04-27T22:13:26.418Z,97847.91
2023-04-27T22:15:53.178Z,97853.16
2023-04-27T22:18:19.988Z,97848.03
2023-04-27T22:20:47.385Z,97860.34
2023-04-27T22:23:14.028Z,97854.25
2023-04-27T22:25:42.875Z,97853.47
2023-04-27T22:28:10.440Z,97854.34
2023-04-27T22:30:37.160Z,97854.47
2023-04-27T22:33:03.925Z,97858.81
2023-04-27T22:35:30.988Z,97855.28
2023-04-27T22:37:59.262Z,97854.31
2023-04-27T22:40:26.255Z,97856.00
2023-04-27T22:42:53.842Z,97846.50
2023-04-27T22:45:21.391Z,97848.34
2023-04-27T22:47:51.960Z,97849.19
2023-04-27T22:50:18.692Z,97856.31
2023-04-27T22:52:45.461Z,97848.41
2023-04-27T22:55:12.720Z,97849.25
2023-04-27T22:57:40.317Z,97852.78
2023-04-27T23:00:11.846Z,97848.59
2023-04-27T23:02:42.816Z,97848.63
2023-04-27T23:05:11.024Z,97853.91
2023-04-27T23:07:38.247Z,97844.44
2023-04-27T23:10:05.982Z,97849.66
2023-04-27T23:12:33.280Z,97846.19
2023-04-27T23:15:00.058Z,97841.91
2023-04-27T23:17:30.579Z,97848.13
2023-04-27T23:20:01.748Z,97841.91
2023-04-27T23:22:31.185Z,97852.34
2023-04-27T23:24:57.802Z,97853.34
2023-04-27T23:27:25.093Z,97852.28
2023-04-27T23:29:51.888Z,97846.25
2023-04-27T23:32:18.867Z,97841.88
2023-04-27T23:34:45.472Z,97847.19
2023-04-27T23:37:12.190Z,97839.34
2023-04-27T23:39:38.854Z,97842.03
2023-04-27T23:42:05.588Z,97838.38
2023-04-27T23:44:32.180Z,97840.09
2023-04-27T23:46:59.293Z,97840.09
2023-04-27T23:49:25.925Z,97838.56
2023-04-27T23:51:52.848Z,97833.31
2023-04-27T23:54:19.550Z,97831.66
2023-04-27T23:56:46.200Z,97833.53
2023-04-27T23:59:15.044Z,97832.69
